LHR weather

London Heathrow Airport
London, England, United Kingdom

Public forecast

Using degrees Celsius for public forecast. Weather courtesy of forecast.io.

METAR (pilot weather report)

Retrieved 2017/10/22 10:20 UTC (24 minutes ago):

EGLL 221020Z AUTO 27021G31KT 9999 BKN039 BKN049 12/04 Q1013 NOSIG

TAF (pilot weather forecast)

Retrieved 2017/10/22 06:18 UTC (4 hours ago):

TAF EGLL 220457Z 2206/2312 26014KT 9999 SCT040 PROB30 TEMPO 2206/2208 26016G28KT 7000 RA BKN014 TEMPO 2208/2216 28018G30KT BECMG 2306/2309 BKN014 TEMPO 2306/2312 6000 -RA PROB40 TEMPO 2308/2312 4000 RA BKN005